METAR Data
IDs: Format: Raw Decoded Include TAF

Data at: 1440 UTC 25 Jan 2020

METAR for:KCVO (Corvallis Muni, OR, US)
Text:KCVO 251356Z AUTO 18011KT 10SM BKN020 09/08 A2997 RMK AO2 SLP150 T00940083
Temperature: 9.4°C ( 49°F)
Dewpoint: 8.3°C ( 47°F) [RH = 93%]
Pressure (altimeter):29.97 inches Hg (1015.0 mb) [Sea level pressure: 1015.0 mb]
Winds:from the S (180 degrees) at 13 MPH (11 knots; 5.7 m/s)
Visibility:10 or more sm (16+ km)
Ceiling:2000 feet AGL
Clouds: broken clouds at 2000 feet AGL
QC Flag:automated observation with no human augmentation
Text:KCVO 251256Z AUTO 16010KT 10SM OVC022 09/08 A2996 RMK AO2 RAB27E38 SLP147 P0000 T00940083
Temperature: 9.4°C ( 49°F)
Dewpoint: 8.3°C ( 47°F) [RH = 93%]
Pressure (altimeter):29.96 inches Hg (1014.6 mb) [Sea level pressure: 1014.7 mb]
Winds:from the SSE (160 degrees) at 12 MPH (10 knots; 5.1 m/s)
Visibility:10 or more sm (16+ km)
Ceiling:2200 feet AGL
Clouds: overcast cloud deck at 2200 feet AGL
QC Flag:automated observation with no human augmentation
Text:KCVO 251217Z AUTO 00000KT 10SM FEW013 OVC021 09/08 A2994 RMK AO2
Temperature: 9.0°C ( 48°F)
Dewpoint: 8.0°C ( 46°F) [RH = 93%]
Pressure (altimeter):29.94 inches Hg (1014.0 mb)
Winds:calm
Visibility:10 or more sm (16+ km)
Ceiling:2100 feet AGL
Clouds: few clouds at 1300 feet AGL, overcast cloud deck at 2100 feet AGL
QC Flag:automated observation with no human augmentation
Text:KCVO 251156Z AUTO 00000KT 9SM BKN013 OVC019 09/07 A2994 RMK AO2 SLP139 60005 70009 T00890072 10089 20078 55006
Temperature: 8.9°C ( 48°F)
Dewpoint: 7.2°C ( 45°F) [RH = 89%]
Pressure (altimeter):29.94 inches Hg (1014.0 mb) [Sea level pressure: 1013.9 mb]
Winds:calm
Visibility: 9 sm ( 14 km)
Ceiling:1300 feet AGL
Clouds: broken clouds at 1300 feet AGL, overcast cloud deck at 1900 feet AGL
QC Flag:automated observation with no human augmentation
Text:KCVO 251148Z AUTO 00000KT 10SM BKN013 OVC021 09/07 A2994 RMK AO2
Temperature: 9.0°C ( 48°F)
Dewpoint: 7.0°C ( 45°F) [RH = 87%]
Pressure (altimeter):29.94 inches Hg (1014.0 mb)
Winds:calm
Visibility:10 or more sm (16+ km)
Ceiling:1300 feet AGL
Clouds: broken clouds at 1300 feet AGL, overcast cloud deck at 2100 feet AGL
QC Flag:automated observation with no human augmentation
Text:KCVO 251056Z AUTO 14012KT 10SM OVC027 08/07 A2991 RMK AO2 PRESFR SLP130 T00830072
Temperature: 8.3°C ( 47°F)
Dewpoint: 7.2°C ( 45°F) [RH = 93%]
Pressure (altimeter):29.91 inches Hg (1013.0 mb) [Sea level pressure: 1013.0 mb]
Winds:from the SE (140 degrees) at 14 MPH (12 knots; 6.2 m/s)
Visibility:10 or more sm (16+ km)
Ceiling:2700 feet AGL
Clouds: overcast cloud deck at 2700 feet AGL
QC Flag:automated observation with no human augmentation
Text:KCVO 250956Z AUTO 00000KT 6SM BR OVC027 08/08 A2995 RMK AO2 RAE32 SLP145 P0001 T00830078
Temperature: 8.3°C ( 47°F)
Dewpoint: 7.8°C ( 46°F) [RH = 97%]
Pressure (altimeter):29.95 inches Hg (1014.3 mb) [Sea level pressure: 1014.5 mb]
Winds:calm
Visibility: 6 sm ( 10 km)
Ceiling:2700 feet AGL
Clouds: overcast cloud deck at 2700 feet AGL
Weather:BR (mist)
QC Flag:automated observation with no human augmentation
Text:KCVO 250941Z AUTO 31003KT 8SM OVC029 08/08 A2995 RMK AO2 RAE32 P0001
Temperature: 8.0°C ( 46°F)
Dewpoint: 8.0°C ( 46°F) [RH = 100%]
Pressure (altimeter):29.95 inches Hg (1014.3 mb)
Winds:from the NW (310 degrees) at 3 MPH (3 knots; 1.5 m/s)
Visibility: 8 sm ( 13 km)
Ceiling:2900 feet AGL
Clouds: overcast cloud deck at 2900 feet AGL
QC Flag:automated observation with no human augmentation
Text:KCVO 250856Z AUTO 11003KT 8SM -RA OVC037 08/08 A2996 RMK AO2 SLP145 P0003 60004 T00830078 56016
Temperature: 8.3°C ( 47°F)
Dewpoint: 7.8°C ( 46°F) [RH = 97%]
Pressure (altimeter):29.96 inches Hg (1014.6 mb) [Sea level pressure: 1014.5 mb]
Winds:from the ESE (110 degrees) at 3 MPH (3 knots; 1.5 m/s)
Visibility: 8 sm ( 13 km)
Ceiling:3700 feet AGL
Clouds: overcast cloud deck at 3700 feet AGL
Weather:-RA (light rain)
QC Flag:automated observation with no human augmentation
Text:KCVO 250756Z AUTO 31003KT 10SM -RA SCT043 OVC050 08/08 A2997 RMK AO2 RAB20 SLP150 P0001 T00780078 401280078
Temperature: 7.8°C ( 46°F)
Dewpoint: 7.8°C ( 46°F) [RH = 100%]
Pressure (altimeter):29.97 inches Hg (1015.0 mb) [Sea level pressure: 1015.0 mb]
Winds:from the NW (310 degrees) at 3 MPH (3 knots; 1.5 m/s)
Visibility:10 or more sm (16+ km)
Ceiling:5000 feet AGL
Clouds: scattered clouds at 4300 feet AGL, overcast cloud deck at 5000 feet AGL
Weather:-RA (light rain)
QC Flag:automated observation with no human augmentation
Text:KCVO 250656Z AUTO 00000KT 10SM OVC060 08/08 A2998 RMK AO2 RAE04 SLP155 P0000 T00780078
Temperature: 7.8°C ( 46°F)
Dewpoint: 7.8°C ( 46°F) [RH = 100%]
Pressure (altimeter):29.98 inches Hg (1015.3 mb) [Sea level pressure: 1015.5 mb]
Winds:calm
Visibility:10 or more sm (16+ km)
Ceiling:6000 feet AGL
Clouds: overcast cloud deck at 6000 feet AGL
QC Flag:automated observation with no human augmentation
Text:KCVO 250556Z AUTO 00000KT 10SM -RA FEW050 OVC100 08/08 A3000 RMK AO2 RAB19 SLP161 P0000 60000 T00780078 10117 20078 58012
Temperature: 7.8°C ( 46°F)
Dewpoint: 7.8°C ( 46°F) [RH = 100%]
Pressure (altimeter):30.00 inches Hg (1016.0 mb) [Sea level pressure: 1016.1 mb]
Winds:calm
Visibility:10 or more sm (16+ km)
Ceiling:10000 feet AGL
Clouds: few clouds at 5000 feet AGL, overcast cloud deck at 10000 feet AGL
Weather:-RA (light rain)
QC Flag:automated observation with no human augmentation
Text:KCVO 250456Z AUTO 00000KT 10SM SCT120 08/08 A3003 RMK AO2 SLP170 T00780078
Temperature: 7.8°C ( 46°F)
Dewpoint: 7.8°C ( 46°F) [RH = 100%]
Pressure (altimeter):30.03 inches Hg (1017.0 mb) [Sea level pressure: 1017.0 mb]
Winds:calm
Visibility:10 or more sm (16+ km)
Ceiling:at least 12,000 feet AGL
Clouds: scattered clouds at 12000 feet AGL
QC Flag:automated observation with no human augmentation
Text:KCVO 250356Z AUTO 00000KT 10SM BKN120 08/08 A3004 RMK AO2 SLP173 T00830078
Temperature: 8.3°C ( 47°F)
Dewpoint: 7.8°C ( 46°F) [RH = 97%]
Pressure (altimeter):30.04 inches Hg (1017.4 mb) [Sea level pressure: 1017.3 mb]
Winds:calm
Visibility:10 or more sm (16+ km)
Ceiling:12000 feet AGL
Clouds: broken clouds at 12000 feet AGL
QC Flag:automated observation with no human augmentation
Text:KCVO 250256Z AUTO 29003KT 10SM CLR 08/08 A3004 RMK AO2 SLP173 T00830078 55005
Temperature: 8.3°C ( 47°F)
Dewpoint: 7.8°C ( 46°F) [RH = 97%]
Pressure (altimeter):30.04 inches Hg (1017.4 mb) [Sea level pressure: 1017.3 mb]
Winds:from the WNW (290 degrees) at 3 MPH (3 knots; 1.5 m/s)
Visibility:10 or more sm (16+ km)
Ceiling:at least 12,000 feet AGL
Clouds:sky clear below 12,000 feet AGL
QC Flag:automated observation with no human augmentation
Text:KCVO 250156Z AUTO 04003KT 10SM CLR 09/08 A3004 RMK AO2 SLP173 T00940083
Temperature: 9.4°C ( 49°F)
Dewpoint: 8.3°C ( 47°F) [RH = 93%]
Pressure (altimeter):30.04 inches Hg (1017.4 mb) [Sea level pressure: 1017.3 mb]
Winds:from the NE (40 degrees) at 3 MPH (3 knots; 1.5 m/s)
Visibility:10 or more sm (16+ km)
Ceiling:at least 12,000 feet AGL
Clouds:sky clear below 12,000 feet AGL
QC Flag:automated observation with no human augmentation
Text:KCVO 250056Z AUTO 21004KT 10SM SCT037 11/08 A3004 RMK AO2 SLP175 T01060083
Temperature: 10.6°C ( 51°F)
Dewpoint: 8.3°C ( 47°F) [RH = 86%]
Pressure (altimeter):30.04 inches Hg (1017.4 mb) [Sea level pressure: 1017.5 mb]
Winds:from the SSW (210 degrees) at 5 MPH (4 knots; 2.1 m/s)
Visibility:10 or more sm (16+ km)
Ceiling:at least 12,000 feet AGL
Clouds: scattered clouds at 3700 feet AGL
QC Flag:automated observation with no human augmentation
Text:KCVO 242356Z AUTO 19006KT 10SM FEW047 OVC060 12/09 A3005 RMK AO2 SLP178 T01220089 10128 20111 56002
Temperature: 12.2°C ( 54°F)
Dewpoint: 8.9°C ( 48°F) [RH = 80%]
Pressure (altimeter):30.05 inches Hg (1017.7 mb) [Sea level pressure: 1017.8 mb]
Winds:from the S (190 degrees) at 7 MPH (6 knots; 3.1 m/s)
Visibility:10 or more sm (16+ km)
Ceiling:6000 feet AGL
Clouds: few clouds at 4700 feet AGL, overcast cloud deck at 6000 feet AGL
QC Flag:automated observation with no human augmentation
Text:KCVO 242256Z AUTO 18011KT 10SM BKN044 12/09 A3005 RMK AO2 SLP178 T01220094
Temperature: 12.2°C ( 54°F)
Dewpoint: 9.4°C ( 49°F) [RH = 83%]
Pressure (altimeter):30.05 inches Hg (1017.7 mb) [Sea level pressure: 1017.8 mb]
Winds:from the S (180 degrees) at 13 MPH (11 knots; 5.7 m/s)
Visibility:10 or more sm (16+ km)
Ceiling:4400 feet AGL
Clouds: broken clouds at 4400 feet AGL
QC Flag:automated observation with no human augmentation
Text:KCVO 242156Z AUTO 17012KT 10SM SCT050 BKN055 12/09 A3005 RMK AO2 SLP176 T01220089
Temperature: 12.2°C ( 54°F)
Dewpoint: 8.9°C ( 48°F) [RH = 80%]
Pressure (altimeter):30.05 inches Hg (1017.7 mb) [Sea level pressure: 1017.6 mb]
Winds:from the S (170 degrees) at 14 MPH (12 knots; 6.2 m/s)
Visibility:10 or more sm (16+ km)
Ceiling:5500 feet AGL
Clouds: scattered clouds at 5000 feet AGL, broken clouds at 5500 feet AGL
QC Flag:automated observation with no human augmentation
Text:KCVO 242056Z AUTO 18010KT 10SM SCT039 12/09 A3006 RMK AO2 SLP181 T01220094 58003
Temperature: 12.2°C ( 54°F)
Dewpoint: 9.4°C ( 49°F) [RH = 83%]
Pressure (altimeter):30.06 inches Hg (1018.0 mb) [Sea level pressure: 1018.1 mb]
Winds:from the S (180 degrees) at 12 MPH (10 knots; 5.1 m/s)
Visibility:10 or more sm (16+ km)
Ceiling:at least 12,000 feet AGL
Clouds: scattered clouds at 3900 feet AGL
QC Flag:automated observation with no human augmentation
Text:KCVO 241956Z AUTO 17012KT 10SM CLR 12/09 A3009 RMK AO2 SLP190 T01170094
Temperature: 11.7°C ( 53°F)
Dewpoint: 9.4°C ( 49°F) [RH = 86%]
Pressure (altimeter):30.09 inches Hg (1019.0 mb) [Sea level pressure: 1019.0 mb]
Winds:from the S (170 degrees) at 14 MPH (12 knots; 6.2 m/s)
Visibility:10 or more sm (16+ km)
Ceiling:at least 12,000 feet AGL
Clouds:sky clear below 12,000 feet AGL
QC Flag:automated observation with no human augmentation
Text:KCVO 241856Z AUTO 17012KT 10SM CLR 12/09 A3008 RMK AO2 SLP186 T01170094
Temperature: 11.7°C ( 53°F)
Dewpoint: 9.4°C ( 49°F) [RH = 86%]
Pressure (altimeter):30.08 inches Hg (1018.7 mb) [Sea level pressure: 1018.6 mb]
Winds:from the S (170 degrees) at 14 MPH (12 knots; 6.2 m/s)
Visibility:10 or more sm (16+ km)
Ceiling:at least 12,000 feet AGL
Clouds:sky clear below 12,000 feet AGL
QC Flag:automated observation with no human augmentation
Text:KCVO 241756Z AUTO 19009KT 10SM CLR 11/09 A3007 RMK AO2 SLP183 60004 T01110089 10111 20089 53015
Temperature: 11.1°C ( 52°F)
Dewpoint: 8.9°C ( 48°F) [RH = 86%]
Pressure (altimeter):30.07 inches Hg (1018.4 mb) [Sea level pressure: 1018.3 mb]
Winds:from the S (190 degrees) at 10 MPH (9 knots; 4.6 m/s)
Visibility:10 or more sm (16+ km)
Ceiling:at least 12,000 feet AGL
Clouds:sky clear below 12,000 feet AGL
QC Flag:automated observation with no human augmentation
Text:KCVO 241718Z AUTO 17009KT 10SM SCT022 10/08 A3005 RMK AO2
Temperature: 10.0°C ( 50°F)
Dewpoint: 8.0°C ( 46°F) [RH = 87%]
Pressure (altimeter):30.05 inches Hg (1017.7 mb)
Winds:from the S (170 degrees) at 10 MPH (9 knots; 4.6 m/s)
Visibility:10 or more sm (16+ km)
Ceiling:at least 12,000 feet AGL
Clouds: scattered clouds at 2200 feet AGL
QC Flag:automated observation with no human augmentation
Text:KCVO 241656Z AUTO 16010KT 10SM SCT022 BKN027 09/08 A3005 RMK AO2 SLP177 P0001 T00940083
Temperature: 9.4°C ( 49°F)
Dewpoint: 8.3°C ( 47°F) [RH = 93%]
Pressure (altimeter):30.05 inches Hg (1017.7 mb) [Sea level pressure: 1017.7 mb]
Winds:from the SSE (160 degrees) at 12 MPH (10 knots; 5.1 m/s)
Visibility:10 or more sm (16+ km)
Ceiling:2700 feet AGL
Clouds: scattered clouds at 2200 feet AGL, broken clouds at 2700 feet AGL
QC Flag:automated observation with no human augmentation
Text:KCVO 241636Z AUTO 17009KT 10SM FEW020 SCT028 09/08 A3004 RMK AO2 P0001
Temperature: 9.0°C ( 48°F)
Dewpoint: 8.0°C ( 46°F) [RH = 93%]
Pressure (altimeter):30.04 inches Hg (1017.4 mb)
Winds:from the S (170 degrees) at 10 MPH (9 knots; 4.6 m/s)
Visibility:10 or more sm (16+ km)
Ceiling:at least 12,000 feet AGL
Clouds: few clouds at 2000 feet AGL, scattered clouds at 2800 feet AGL
QC Flag:automated observation with no human augmentation
Text:KCVO 241556Z AUTO 16009KT 10SM OVC024 09/08 A3003 RMK AO2 RAE15 SLP170 P0000 T00940083
Temperature: 9.4°C ( 49°F)
Dewpoint: 8.3°C ( 47°F) [RH = 93%]
Pressure (altimeter):30.03 inches Hg (1017.0 mb) [Sea level pressure: 1017.0 mb]
Winds:from the SSE (160 degrees) at 10 MPH (9 knots; 4.6 m/s)
Visibility:10 or more sm (16+ km)
Ceiling:2400 feet AGL
Clouds: overcast cloud deck at 2400 feet AGL
QC Flag:automated observation with no human augmentation
Text:KCVO 241532Z AUTO 17008KT 10SM BKN026 OVC032 09/08 A3003 RMK AO2 RAE15 P0000
Temperature: 9.0°C ( 48°F)
Dewpoint: 8.0°C ( 46°F) [RH = 93%]
Pressure (altimeter):30.03 inches Hg (1017.0 mb)
Winds:from the S (170 degrees) at 9 MPH (8 knots; 4.1 m/s)
Visibility:10 or more sm (16+ km)
Ceiling:2600 feet AGL
Clouds: broken clouds at 2600 feet AGL, overcast cloud deck at 3200 feet AGL
QC Flag:automated observation with no human augmentation
Text:KCVO 241456Z AUTO 18007KT 8SM -RA SCT030 BKN037 OVC060 09/09 A3002 RMK AO2 SLP168 P0003 60003 T00940089 53011
Temperature: 9.4°C ( 49°F)
Dewpoint: 8.9°C ( 48°F) [RH = 97%]
Pressure (altimeter):30.02 inches Hg (1016.7 mb) [Sea level pressure: 1016.8 mb]
Winds:from the S (180 degrees) at 8 MPH (7 knots; 3.6 m/s)
Visibility: 8 sm ( 13 km)
Ceiling:3700 feet AGL
Clouds: scattered clouds at 3000 feet AGL, broken clouds at 3700 feet AGL, overcast cloud deck at 6000 feet AGL
Weather:-RA (light rain)
QC Flag:automated observation with no human augmentation